Time;durP1;ratioP1;P1;durP2;ratioP2;P2;SDS_P1;SDS_P2;PMS_P1;PMS_P2;Temp;Humidity;BMP_temperature;BMP_pressure;BME280_temperature;BME280_humidity;BME280_pressure;Samples;Min_cycle;Max_cycle;Signal;HPM_P1;HPM_P2
2023/09/15 00:00:14;;;;;;;8.40;7.90;;;18.00;25.80;;;;;;5011070;28;20952;-77
2023/09/15 00:02:39;;;;;;;8.00;7.50;;;18.10;25.90;;;;;;4995163;28;20198;-78
2023/09/15 00:05:08;;;;;;;8.33;7.93;;;18.30;25.50;;;;;;4994641;28;20507;-77
2023/09/15 00:07:35;;;;;;;8.27;7.70;;;18.40;24.90;;;;;;4994754;28;20182;-77
2023/09/15 00:10:00;;;;;;;8.43;8.03;;;18.60;24.70;;;;;;4993372;28;20999;-77
2023/09/15 00:12:26;;;;;;;8.37;7.97;;;18.70;24.30;;;;;;4993117;28;20460;-77
2023/09/15 00:14:52;;;;;;;7.77;7.37;;;18.80;24.00;;;;;;4994367;28;20221;-77
2023/09/15 00:17:17;;;;;;;7.80;7.20;;;18.80;23.80;;;;;;4993730;28;20177;-77
2023/09/15 00:19:43;;;;;;;7.40;7.00;;;18.80;23.80;;;;;;4994489;28;20177;-77
2023/09/15 00:22:08;;;;;;;7.90;7.50;;;18.90;23.70;;;;;;4993290;28;20186;-77
2023/09/15 00:24:35;;;;;;;8.57;8.17;;;18.90;23.70;;;;;;5009502;28;20182;-77
2023/09/15 00:27:01;;;;;;;8.03;7.63;;;19.00;23.70;;;;;;4994890;28;20642;-77
2023/09/15 00:29:27;;;;;;;8.30;7.80;;;19.00;23.50;;;;;;4993517;28;20441;-77
2023/09/15 00:31:52;;;;;;;8.27;7.77;;;19.10;23.40;;;;;;4994114;28;20461;-77
2023/09/15 00:34:18;;;;;;;8.60;8.10;;;19.00;23.40;;;;;;4994285;28;20696;-77
2023/09/15 00:36:45;;;;;;;8.47;7.93;;;18.70;24.20;;;;;;4994326;28;20332;-77
2023/09/15 00:39:11;;;;;;;8.70;8.20;;;18.50;24.80;;;;;;4994511;28;20181;-77
2023/09/15 00:41:36;;;;;;;7.80;7.33;;;18.30;25.50;;;;;;4994538;28;20428;-77
2023/09/15 00:44:02;;;;;;;8.00;7.60;;;18.40;25.30;;;;;;4993681;28;20463;-77
2023/09/15 00:46:30;;;;;;;8.50;8.00;;;18.50;24.90;;;;;;5009581;28;20201;-77
2023/09/15 00:48:56;;;;;;;8.67;8.27;;;18.60;24.70;;;;;;4994013;28;20676;-77
2023/09/15 00:51:23;;;;;;;8.40;8.00;;;18.70;24.50;;;;;;4993710;28;20965;-77
2023/09/15 00:53:49;;;;;;;8.20;7.80;;;18.70;24.40;;;;;;4993537;28;20452;-77
2023/09/15 00:56:16;;;;;;;8.87;8.40;;;18.80;24.20;;;;;;4994229;28;20421;-77
2023/09/15 00:58:41;;;;;;;8.63;8.13;;;18.80;24.10;;;;;;5009015;28;20503;-76
2023/09/15 01:01:08;;;;;;;8.80;8.30;;;18.80;24.00;;;;;;4994026;28;20428;-77
2023/09/15 01:03:39;;;;;;;8.53;8.03;;;18.80;23.90;;;;;;4993324;28;20292;-77
2023/09/15 01:06:06;;;;;;;8.90;8.37;;;18.80;23.90;;;;;;4993813;28;20520;-77
2023/09/15 01:08:34;;;;;;;8.20;7.80;;;18.80;23.90;;;;;;4993637;28;20429;-77
2023/09/15 01:11:03;;;;;;;8.83;8.33;;;18.90;23.90;;;;;;4993331;28;20429;-77
2023/09/15 01:13:30;;;;;;;8.33;7.93;;;18.90;23.90;;;;;;4993632;28;20472;-78
2023/09/15 01:16:21;;;;;;;8.77;8.17;;;18.90;23.80;;;;;;4993978;28;20527;-77
2023/09/15 01:18:58;;;;;;;8.23;7.93;;;19.00;23.70;;;;;;4993625;28;20457;-77
2023/09/15 01:21:38;;;;;;;7.97;7.53;;;19.00;23.70;;;;;;4994260;28;20796;-77
2023/09/15 01:24:04;;;;;;;9.00;8.50;;;19.00;23.80;;;;;;5010370;28;20909;-77
2023/09/15 01:26:52;;;;;;;7.87;7.47;;;19.00;23.70;;;;;;4993670;28;20456;-77
2023/09/15 01:29:38;;;;;;;8.00;7.50;;;18.90;23.80;;;;;;5008484;28;20252;-77
2023/09/15 01:32:07;;;;;;;8.67;8.17;;;19.00;23.90;;;;;;4984668;28;20462;-77
2023/09/15 01:34:37;;;;;;;8.70;8.10;;;18.90;23.90;;;;;;5008056;28;20429;-77
2023/09/15 01:37:04;;;;;;;8.10;7.70;;;18.90;23.80;;;;;;4985028;28;20429;-77
2023/09/15 01:39:30;;;;;;;7.97;7.67;;;18.90;23.90;;;;;;4991981;28;20460;-77
2023/09/15 01:42:02;;;;;;;8.93;8.53;;;18.90;23.90;;;;;;4990933;28;20428;-77
2023/09/15 01:44:28;;;;;;;9.87;9.03;;;18.90;23.90;;;;;;4992834;28;20460;-77
2023/09/15 01:46:54;;;;;;;9.10;8.60;;;18.90;23.80;;;;;;4992644;28;20881;-77
2023/09/15 01:49:21;;;;;;;8.53;8.13;;;18.90;23.90;;;;;;4992023;28;20668;-77
2023/09/15 01:51:48;;;;;;;8.90;8.40;;;18.80;23.80;;;;;;4992066;28;20202;-77
2023/09/15 01:54:14;;;;;;;8.60;8.20;;;18.90;24.10;;;;;;4992732;28;20445;-77
2023/09/15 01:56:40;;;;;;;8.30;8.00;;;18.80;24.00;;;;;;4992723;28;20414;-77
2023/09/15 01:59:06;;;;;;;9.07;8.47;;;18.80;24.10;;;;;;4991075;28;20524;-77
2023/09/15 02:01:31;;;;;;;9.93;9.33;;;18.90;24.30;;;;;;4992214;28;20182;-77
2023/09/15 02:03:57;;;;;;;9.93;9.33;;;18.80;24.60;;;;;;4992020;28;20210;-77
2023/09/15 02:06:22;;;;;;;9.63;9.20;;;18.70;24.80;;;;;;4991233;28;20185;-77
2023/09/15 02:08:48;;;;;;;11.33;10.23;;;18.70;25.00;;;;;;4992424;28;20657;-77
2023/09/15 02:11:13;;;;;;;10.37;9.87;;;18.70;25.10;;;;;;4992031;28;20186;-77
2023/09/15 02:13:40;;;;;;;10.40;9.90;;;18.70;25.60;;;;;;4992122;28;20301;-77
2023/09/15 02:16:06;;;;;;;11.00;10.40;;;18.70;25.90;;;;;;4992398;28;20174;-77
2023/09/15 02:18:31;;;;;;;11.07;10.47;;;18.60;26.00;;;;;;5007376;28;20488;-77
2023/09/15 02:20:57;;;;;;;11.10;10.30;;;18.70;26.20;;;;;;4990810;28;20182;-77
2023/09/15 02:23:24;;;;;;;9.73;9.10;;;18.70;26.30;;;;;;4992195;28;20214;-77
2023/09/15 02:25:49;;;;;;;10.57;9.97;;;18.60;25.80;;;;;;4992210;28;20186;-77
2023/09/15 02:28:15;;;;;;;10.40;9.90;;;18.60;25.80;;;;;;4991299;28;20777;-76
2023/09/15 02:30:41;;;;;;;10.77;10.27;;;18.60;26.00;;;;;;4992167;28;20276;-76
2023/09/15 02:33:07;;;;;;;10.80;10.20;;;18.60;26.00;;;;;;4991996;28;20579;-76
2023/09/15 02:35:32;;;;;;;10.57;9.90;;;18.60;26.20;;;;;;4991006;28;20185;-76
2023/09/15 02:37:58;;;;;;;10.07;9.37;;;18.60;26.30;;;;;;4990384;28;20185;-77
2023/09/15 02:40:24;;;;;;;10.47;9.87;;;18.50;26.00;;;;;;4992642;28;20190;-77
2023/09/15 02:42:50;;;;;;;9.57;9.07;;;18.50;25.90;;;;;;4993114;28;20213;-77
2023/09/15 02:45:16;;;;;;;10.10;9.60;;;18.50;25.70;;;;;;4992417;28;20433;-77
2023/09/15 02:47:41;;;;;;;10.70;10.13;;;18.40;25.80;;;;;;4993861;28;20508;-77
2023/09/15 02:50:07;;;;;;;9.93;9.27;;;18.40;25.60;;;;;;5001549;28;20464;-77
2023/09/15 02:52:33;;;;;;;9.50;9.00;;;18.40;25.40;;;;;;4993065;28;20634;-77
2023/09/15 02:54:59;;;;;;;10.70;10.03;;;18.30;25.50;;;;;;4991906;28;20432;-77
2023/09/15 02:57:25;;;;;;;9.77;9.27;;;18.30;25.10;;;;;;4992395;28;20790;-77
2023/09/15 02:59:52;;;;;;;10.33;9.83;;;18.20;25.20;;;;;;4992220;28;20186;-77
2023/09/15 03:02:20;;;;;;;8.93;8.53;;;18.20;25.20;;;;;;4995029;28;20190;-77
2023/09/15 03:04:49;;;;;;;10.27;9.47;;;18.20;25.00;;;;;;4994224;28;20456;-77
2023/09/15 03:07:15;;;;;;;9.40;9.00;;;18.20;25.00;;;;;;4996988;28;20516;-77
2023/09/15 03:09:41;;;;;;;10.43;9.70;;;18.20;25.10;;;;;;4998962;28;20436;-78
2023/09/15 03:12:07;;;;;;;10.13;9.30;;;18.20;24.90;;;;;;4990094;28;20460;-77
2023/09/15 03:14:33;;;;;;;9.50;8.90;;;18.20;24.70;;;;;;4996325;28;20479;-77
2023/09/15 03:16:58;;;;;;;10.90;10.30;;;18.20;24.70;;;;;;4996109;28;20440;-77
2023/09/15 03:19:24;;;;;;;9.70;9.20;;;18.20;24.60;;;;;;4994606;28;20680;-77
2023/09/15 03:21:50;;;;;;;10.60;10.00;;;18.20;24.60;;;;;;4995517;28;20181;-77
2023/09/15 03:24:16;;;;;;;10.50;9.90;;;18.10;24.70;;;;;;4995542;28;20602;-77
2023/09/15 03:26:41;;;;;;;11.00;10.40;;;18.20;24.80;;;;;;4995520;28;20185;-77
2023/09/15 03:29:07;;;;;;;9.90;9.43;;;18.20;24.90;;;;;;4995594;28;20197;-77
2023/09/15 03:31:32;;;;;;;10.00;9.50;;;18.10;24.80;;;;;;4995131;28;20272;-77
2023/09/15 03:33:58;;;;;;;10.97;10.47;;;18.10;24.80;;;;;;4995051;28;20210;-76
2023/09/15 03:36:26;;;;;;;10.63;10.03;;;18.10;24.80;;;;;;4995576;28;20560;-76
2023/09/15 03:38:52;;;;;;;10.33;9.53;;;18.10;24.70;;;;;;4996466;28;20260;-76
2023/09/15 03:41:17;;;;;;;10.90;10.40;;;18.10;24.80;;;;;;4996357;28;20788;-76
2023/09/15 03:43:43;;;;;;;10.40;9.90;;;18.10;24.90;;;;;;4996451;28;20444;-76
2023/09/15 03:46:08;;;;;;;8.70;8.20;;;18.10;25.00;;;;;;4996662;28;20186;-76
2023/09/15 03:48:34;;;;;;;9.77;9.27;;;18.10;25.00;;;;;;4996157;28;20214;-76
2023/09/15 03:50:59;;;;;;;10.30;9.63;;;18.10;25.20;;;;;;4995013;28;20193;-76
2023/09/15 03:53:25;;;;;;;10.20;9.53;;;18.00;25.30;;;;;;4995060;28;20205;-77
2023/09/15 03:55:51;;;;;;;9.83;9.20;;;18.10;25.30;;;;;;4995397;28;20243;-76
2023/09/15 03:58:17;;;;;;;10.20;9.70;;;18.10;25.30;;;;;;4997110;28;20228;-76
2023/09/15 04:00:43;;;;;;;10.00;9.50;;;18.10;25.40;;;;;;4998342;28;20256;-77
2023/09/15 04:03:09;;;;;;;10.20;9.70;;;18.10;25.40;;;;;;4996479;28;20480;-77
2023/09/15 04:05:35;;;;;;;11.40;10.67;;;18.10;25.30;;;;;;4995674;28;20475;-77
2023/09/15 04:08:00;;;;;;;10.97;10.37;;;18.10;25.40;;;;;;4995174;28;20804;-77
2023/09/15 04:10:26;;;;;;;10.97;10.30;;;18.10;25.30;;;;;;4994524;28;20680;-77
2023/09/15 04:12:51;;;;;;;11.90;11.10;;;18.10;25.40;;;;;;4993951;28;20213;-76
2023/09/15 04:15:17;;;;;;;9.67;9.23;;;18.10;25.40;;;;;;4994442;28;20174;-77
2023/09/15 04:17:43;;;;;;;11.30;10.70;;;18.10;25.40;;;;;;4994684;28;20216;-77
2023/09/15 04:20:10;;;;;;;10.93;10.43;;;18.00;25.40;;;;;;5012125;28;20718;-76
2023/09/15 04:22:40;;;;;;;11.27;10.60;;;18.00;25.50;;;;;;5001361;28;20547;-77
2023/09/15 04:25:07;;;;;;;11.00;10.40;;;18.00;25.90;;;;;;4994864;28;20425;-76
2023/09/15 04:27:33;;;;;;;10.77;10.17;;;17.90;25.80;;;;;;4994624;28;20505;-77
2023/09/15 04:29:58;;;;;;;12.27;11.57;;;17.90;25.90;;;;;;4993910;28;20504;-77
2023/09/15 04:32:24;;;;;;;11.60;11.00;;;17.90;26.00;;;;;;4993800;28;21107;-76
2023/09/15 04:34:50;;;;;;;12.47;11.70;;;17.80;26.00;;;;;;4994030;28;20273;-77
2023/09/15 04:37:16;;;;;;;10.87;10.37;;;17.90;26.10;;;;;;5009881;28;20186;-77
2023/09/15 04:39:41;;;;;;;10.80;10.10;;;17.60;26.20;;;;;;5009220;28;20897;-77
2023/09/15 04:42:08;;;;;;;12.43;11.60;;;17.40;26.90;;;;;;4993644;28;20583;-76
2023/09/15 04:44:33;;;;;;;10.63;10.03;;;17.10;28.00;;;;;;4993839;28;20236;-78
2023/09/15 04:47:00;;;;;;;10.70;10.20;;;16.90;28.30;;;;;;4992269;28;20425;-77
2023/09/15 04:49:26;;;;;;;10.30;9.80;;;16.80;29.70;;;;;;4994293;28;20182;-77
2023/09/15 04:51:54;;;;;;;10.70;10.10;;;16.80;28.90;;;;;;4993852;28;20457;-77
2023/09/15 04:54:20;;;;;;;9.80;9.37;;;16.60;29.40;;;;;;4994294;28;20658;-77
2023/09/15 04:56:46;;;;;;;10.97;10.47;;;16.60;30.30;;;;;;4994497;28;20421;-77
2023/09/15 04:59:18;;;;;;;10.97;10.47;;;16.80;29.40;;;;;;4994163;28;20182;-77
2023/09/15 05:01:45;;;;;;;11.80;11.20;;;17.00;28.80;;;;;;4993679;28;20213;-77
2023/09/15 05:04:11;;;;;;;11.80;11.00;;;17.20;28.20;;;;;;4992382;28;20978;-77
2023/09/15 05:06:37;;;;;;;10.40;9.90;;;17.30;28.10;;;;;;4993726;28;20421;-77
2023/09/15 05:09:09;;;;;;;10.77;10.00;;;17.40;27.70;;;;;;4993332;28;20984;-77
2023/09/15 05:11:35;;;;;;;11.30;10.60;;;17.40;27.60;;;;;;4991835;28;20544;-76
2023/09/15 05:14:01;;;;;;;10.50;9.87;;;17.50;27.40;;;;;;4991516;28;20452;-76
2023/09/15 05:16:27;;;;;;;12.70;11.67;;;17.50;27.10;;;;;;4993474;28;20425;-76
2023/09/15 05:18:52;;;;;;;11.13;10.53;;;17.60;27.00;;;;;;4993858;28;20182;-77
2023/09/15 05:21:18;;;;;;;10.93;10.43;;;17.60;26.80;;;;;;4992286;28;20992;-77
2023/09/15 05:23:43;;;;;;;10.23;9.70;;;17.70;26.80;;;;;;5046203;22;20608;-78
2023/09/15 05:26:09;;;;;;;12.30;11.10;;;17.70;26.80;;;;;;5032807;28;20180;-78
2023/09/15 05:28:34;;;;;;;12.57;11.77;;;17.70;26.50;;;;;;5036702;28;20284;-77
2023/09/15 05:31:00;;;;;;;12.00;11.27;;;17.70;26.50;;;;;;5036700;28;20238;-78
2023/09/15 05:33:26;;;;;;;12.30;11.50;;;17.80;26.60;;;;;;5038044;28;20208;-77
2023/09/15 05:35:58;;;;;;;10.93;10.43;;;17.80;26.70;;;;;;5038133;28;20184;-78
2023/09/15 05:38:24;;;;;;;11.90;11.30;;;17.80;26.60;;;;;;5038149;28;20420;-78
2023/09/15 05:40:50;;;;;;;11.90;11.20;;;17.80;26.60;;;;;;5037597;28;20457;-76
2023/09/15 05:43:20;;;;;;;12.43;11.83;;;17.80;26.50;;;;;;5037708;28;20883;-78
2023/09/15 05:45:47;;;;;;;12.67;11.87;;;17.90;26.60;;;;;;5038416;28;20242;-76
2023/09/15 05:48:17;;;;;;;11.70;11.10;;;17.90;26.50;;;;;;5038322;28;20435;-78
2023/09/15 05:50:43;;;;;;;11.20;10.60;;;17.90;26.50;;;;;;5037315;28;20439;-78
2023/09/15 05:53:09;;;;;;;11.17;10.43;;;17.90;26.50;;;;;;5037864;28;20473;-77
2023/09/15 05:55:36;;;;;;;11.70;11.10;;;17.90;26.50;;;;;;5038119;28;20526;-78
2023/09/15 05:58:01;;;;;;;12.33;11.53;;;18.00;26.30;;;;;;5038564;28;20455;-78
2023/09/15 06:00:27;;;;;;;11.90;11.30;;;18.00;26.20;;;;;;5038030;28;20185;-76
2023/09/15 06:02:52;;;;;;;11.07;10.57;;;17.90;26.20;;;;;;5035579;28;20247;-78
2023/09/15 06:05:20;;;;;;;11.40;10.90;;;17.70;27.20;;;;;;5035914;28;20280;-78
2023/09/15 06:07:49;;;;;;;10.87;10.27;;;17.30;28.10;;;;;;5035644;28;20200;-77
2023/09/15 06:10:15;;;;;;;11.20;10.50;;;17.10;28.80;;;;;;5035548;28;20784;-78
2023/09/15 06:12:40;;;;;;;12.87;11.87;;;17.10;28.70;;;;;;5037612;28;20471;-78
2023/09/15 06:15:06;;;;;;;12.17;11.57;;;17.10;28.80;;;;;;5036507;28;20196;-76
2023/09/15 06:17:33;;;;;;;14.53;13.60;;;17.20;28.60;;;;;;5035464;28;20270;-77
2023/09/15 06:19:59;;;;;;;13.07;12.47;;;17.20;28.90;;;;;;5035893;28;20485;-77
2023/09/15 06:22:25;;;;;;;13.03;12.40;;;17.10;29.00;;;;;;5035281;28;20435;-78
2023/09/15 06:24:51;;;;;;;13.47;12.63;;;17.10;29.30;;;;;;5036762;28;20927;-78
2023/09/15 06:27:16;;;;;;;13.10;12.30;;;17.10;29.30;;;;;;5037064;28;20454;-77
2023/09/15 06:29:43;;;;;;;12.70;12.00;;;17.20;29.20;;;;;;5035364;28;20180;-78
2023/09/15 06:32:08;;;;;;;12.90;12.20;;;17.30;28.60;;;;;;5037318;28;20197;-76
2023/09/15 06:34:34;;;;;;;13.27;12.40;;;17.30;28.60;;;;;;5036398;28;20440;-78
2023/09/15 06:37:01;;;;;;;12.83;12.03;;;17.50;28.80;;;;;;5037720;28;20181;-76
2023/09/15 06:39:28;;;;;;;12.50;11.90;;;17.60;28.30;;;;;;5039884;28;20536;-77
2023/09/15 06:41:57;;;;;;;11.40;10.80;;;17.70;28.40;;;;;;5038004;28;20453;-78
2023/09/15 06:44:23;;;;;;;13.13;12.53;;;17.70;27.60;;;;;;5039905;28;20470;-78
2023/09/15 06:46:48;;;;;;;14.23;13.20;;;17.60;28.30;;;;;;5041273;28;20419;-77
2023/09/15 06:49:16;;;;;;;13.70;12.70;;;17.40;28.20;;;;;;5041689;28;20430;-76
2023/09/15 06:51:41;;;;;;;14.00;13.00;;;17.40;28.50;;;;;;5040241;28;20725;-79
2023/09/15 06:54:07;;;;;;;14.03;13.27;;;17.40;28.40;;;;;;5040907;28;20525;-79
2023/09/15 06:56:32;;;;;;;13.90;13.10;;;17.40;28.90;;;;;;5041943;28;20208;-78
2023/09/15 06:58:58;;;;;;;14.87;13.90;;;17.50;28.70;;;;;;5042369;28;20192;-76
2023/09/15 07:01:23;;;;;;;13.60;12.60;;;17.60;28.30;;;;;;5042373;28;20573;-78
2023/09/15 07:03:49;;;;;;;13.93;12.93;;;17.70;28.60;;;;;;5038569;28;20208;-78
2023/09/15 07:06:14;;;;;;;12.50;11.70;;;17.70;28.40;;;;;;5042466;28;20658;-78
2023/09/15 07:08:40;;;;;;;13.00;12.20;;;17.70;28.40;;;;;;5042147;28;20184;-78
2023/09/15 07:11:06;;;;;;;13.40;12.50;;;17.60;28.30;;;;;;5040952;28;20468;-78
2023/09/15 07:13:31;;;;;;;14.23;13.10;;;17.70;28.40;;;;;;5040566;28;20205;-78
2023/09/15 07:15:57;;;;;;;13.90;13.10;;;17.80;28.50;;;;;;5041785;28;20200;-76
2023/09/15 07:18:23;;;;;;;13.77;12.87;;;17.80;28.50;;;;;;5040829;28;20187;-78
2023/09/15 07:20:49;;;;;;;13.60;12.77;;;17.90;28.60;;;;;;5042355;28;20185;-78
2023/09/15 07:23:14;;;;;;;14.60;13.53;;;17.90;28.50;;;;;;5041808;28;20462;-78
2023/09/15 07:25:44;;;;;;;13.87;13.10;;;17.90;28.50;;;;;;5040457;28;20307;-79
2023/09/15 07:28:09;;;;;;;16.07;14.37;;;17.90;28.50;;;;;;5040012;28;20181;-79
2023/09/15 07:30:35;;;;;;;15.43;14.20;;;18.00;28.60;;;;;;5041508;28;20446;-78
2023/09/15 07:33:01;;;;;;;14.93;14.13;;;17.90;28.50;;;;;;5041543;28;20215;-79
2023/09/15 07:35:26;;;;;;;13.57;12.57;;;17.90;28.50;;;;;;5041531;28;20231;-79
2023/09/15 07:37:52;;;;;;;15.90;14.67;;;18.00;29.30;;;;;;5040387;28;20470;-77
2023/09/15 07:40:18;;;;;;;14.10;13.20;;;18.00;28.60;;;;;;5040218;28;20605;-77
2023/09/15 07:42:43;;;;;;;15.50;14.40;;;18.10;28.70;;;;;;5040789;28;20676;-78
2023/09/15 07:45:09;;;;;;;14.97;13.73;;;18.30;28.70;;;;;;5040286;28;20478;-77
2023/09/15 07:47:35;;;;;;;14.47;13.70;;;18.40;28.10;;;;;;5039398;28;20189;-78
2023/09/15 07:50:00;;;;;;;15.60;14.40;;;18.30;28.00;;;;;;5038777;28;20203;-79
2023/09/15 07:52:27;;;;;;;15.07;13.83;;;18.40;28.20;;;;;;5040577;28;20249;-77
2023/09/15 07:54:53;;;;;;;15.23;14.00;;;18.40;28.80;;;;;;5040745;28;20172;-79
2023/09/15 07:57:18;;;;;;;13.40;12.60;;;18.50;28.70;;;;;;5039455;28;20446;-78
2023/09/15 07:59:44;;;;;;;15.40;14.37;;;18.60;28.20;;;;;;5038288;28;20655;-78
2023/09/15 08:02:09;;;;;;;15.47;14.27;;;18.50;27.90;;;;;;5037691;28;20198;-77
2023/09/15 08:04:35;;;;;;;13.93;13.13;;;18.50;28.20;;;;;;5038798;28;20212;-78
2023/09/15 08:07:02;;;;;;;15.17;14.03;;;18.60;28.40;;;;;;5037057;28;20185;-78
2023/09/15 08:09:28;;;;;;;14.70;13.60;;;18.70;28.40;;;;;;5039735;28;20207;-80
2023/09/15 08:11:59;;;;;;;14.60;13.20;;;18.80;28.10;;;;;;5039692;28;20471;-79
2023/09/15 08:14:25;;;;;;;13.50;12.60;;;18.80;27.90;;;;;;5038821;28;20207;-80
2023/09/15 08:16:51;;;;;;;12.67;11.97;;;18.80;28.10;;;;;;5037237;28;20792;-78
2023/09/15 08:19:17;;;;;;;14.50;13.60;;;18.90;27.90;;;;;;5036729;28;20211;-79
2023/09/15 08:21:43;;;;;;;15.20;13.97;;;18.90;27.80;;;;;;5039248;28;20435;-78
2023/09/15 08:24:08;;;;;;;14.00;13.20;;;19.00;27.50;;;;;;5040239;28;20463;-78
2023/09/15 08:26:34;;;;;;;14.47;13.67;;;19.00;27.50;;;;;;5042654;28;20188;-77
2023/09/15 08:28:59;;;;;;;14.43;13.53;;;19.10;27.50;;;;;;5042574;28;20554;-77
2023/09/15 08:31:28;;;;;;;15.00;14.07;;;19.10;27.50;;;;;;5043615;28;20608;-77
2023/09/15 08:33:54;;;;;;;14.10;13.30;;;19.10;27.80;;;;;;5043498;28;20198;-77
2023/09/15 08:36:19;;;;;;;14.50;13.50;;;19.10;27.60;;;;;;5045558;28;20510;-79
2023/09/15 08:38:45;;;;;;;13.87;12.90;;;19.30;27.40;;;;;;5042216;28;20180;-78
2023/09/15 08:41:20;;;;;;;12.37;11.77;;;19.30;27.10;;;;;;5042154;28;20682;-76
2023/09/15 08:43:46;;;;;;;14.20;13.10;;;19.40;27.40;;;;;;5040998;28;20211;-77
2023/09/15 08:46:12;;;;;;;13.60;12.80;;;19.60;26.80;;;;;;5042660;28;20431;-76
2023/09/15 08:48:46;;;;;;;14.73;13.90;;;19.70;26.70;;;;;;5043385;28;20431;-76
2023/09/15 08:51:12;;;;;;;13.43;12.50;;;19.70;26.40;;;;;;5044436;28;20547;-78
2023/09/15 08:53:39;;;;;;;15.20;14.17;;;19.70;26.40;;;;;;5039596;28;20482;-78
2023/09/15 08:56:05;;;;;;;13.70;12.90;;;19.70;26.30;;;;;;5039961;28;20931;-78
2023/09/15 08:58:32;;;;;;;15.33;14.23;;;19.80;26.30;;;;;;5039292;28;20462;-78
2023/09/15 09:01:00;;;;;;;14.43;13.63;;;19.90;26.20;;;;;;5039841;28;20851;-79
2023/09/15 09:03:25;;;;;;;15.40;14.60;;;20.20;25.90;;;;;;5038226;28;20455;-79
2023/09/15 09:05:52;;;;;;;15.20;13.77;;;20.40;25.20;;;;;;5038953;28;20954;-78
2023/09/15 09:08:19;;;;;;;13.70;12.87;;;20.60;24.80;;;;;;5039087;28;20203;-78
2023/09/15 09:10:46;;;;;;;15.13;14.10;;;20.80;24.40;;;;;;5039028;28;20941;-77
2023/09/15 09:13:12;;;;;;;14.27;13.50;;;21.10;23.50;;;;;;5038307;28;20466;-79
2023/09/15 09:15:40;;;;;;;14.93;14.13;;;21.30;23.30;;;;;;5038860;28;20934;-79
2023/09/15 09:18:19;;;;;;;13.90;13.10;;;21.50;22.70;;;;;;5036623;28;20185;-78
2023/09/15 09:20:50;;;;;;;13.90;13.10;;;21.60;22.60;;;;;;5037079;28;20435;-78
2023/09/15 09:23:20;;;;;;;14.67;13.87;;;21.80;22.90;;;;;;5037365;28;20486;-78
2023/09/15 09:25:46;;;;;;;15.27;14.33;;;22.00;21.60;;;;;;5038018;28;20550;-77
2023/09/15 09:28:12;;;;;;;14.23;13.23;;;22.00;21.80;;;;;;5039151;28;20427;-78
2023/09/15 09:30:38;;;;;;;14.17;13.37;;;22.20;22.00;;;;;;5038226;28;20415;-78
2023/09/15 09:33:05;;;;;;;13.50;12.80;;;22.40;21.40;;;;;;5038365;28;21132;-77
2023/09/15 09:35:31;;;;;;;14.93;13.70;;;22.50;21.00;;;;;;5038986;28;20173;-78
2023/09/15 09:37:59;;;;;;;14.23;13.13;;;22.60;20.70;;;;;;5038812;28;20416;-78
2023/09/15 09:40:25;;;;;;;13.37;12.67;;;22.70;20.60;;;;;;5037759;28;20426;-78
2023/09/15 09:42:52;;;;;;;13.77;12.63;;;22.70;20.40;;;;;;5038250;28;20470;-78
2023/09/15 09:45:24;;;;;;;13.67;12.87;;;22.80;20.50;;;;;;5038522;28;20939;-78
2023/09/15 09:47:50;;;;;;;13.57;12.60;;;22.80;20.90;;;;;;5039786;28;20442;-78
2023/09/15 09:50:15;;;;;;;14.27;13.43;;;22.90;20.80;;;;;;5038589;28;20419;-78
2023/09/15 09:52:41;;;;;;;13.10;12.30;;;23.00;20.00;;;;;;5036072;28;20461;-78
2023/09/15 09:55:08;;;;;;;14.17;13.37;;;22.90;20.00;;;;;;5037395;28;20183;-79
2023/09/15 09:57:36;;;;;;;14.00;13.10;;;22.90;20.20;;;;;;5038285;28;20238;-78
2023/09/15 10:00:03;;;;;;;13.97;13.17;;;23.00;20.40;;;;;;5038166;28;20450;-79
2023/09/15 10:02:29;;;;;;;14.77;13.87;;;23.10;20.10;;;;;;5036939;28;20432;-79
2023/09/15 10:04:55;;;;;;;14.30;13.60;;;23.10;19.80;;;;;;5039208;28;20943;-79
2023/09/15 10:07:21;;;;;;;13.53;12.73;;;23.10;20.30;;;;;;5038747;28;20431;-77
2023/09/15 10:09:47;;;;;;;12.43;11.63;;;23.30;20.20;;;;;;5038415;28;20195;-79
2023/09/15 10:12:14;;;;;;;12.70;12.03;;;23.40;19.70;;;;;;5037405;28;20674;-78
2023/09/15 10:14:40;;;;;;;12.37;11.63;;;23.50;19.50;;;;;;5038119;28;20644;-79
2023/09/15 10:17:07;;;;;;;12.40;11.70;;;23.50;19.50;;;;;;5037730;28;20415;-79
2023/09/15 10:19:33;;;;;;;11.07;10.37;;;23.70;18.70;;;;;;5037755;28;20436;-80
2023/09/15 10:22:00;;;;;;;11.70;10.60;;;23.60;18.60;;;;;;5037889;28;20426;-79
2023/09/15 10:24:27;;;;;;;12.03;11.23;;;23.70;19.10;;;;;;5037859;28;20447;-79
2023/09/15 10:26:52;;;;;;;12.30;11.60;;;23.80;19.00;;;;;;5037778;28;20427;-80
2023/09/15 10:29:18;;;;;;;12.37;11.47;;;23.90;18.60;;;;;;5036138;28;21028;-80
2023/09/15 10:31:45;;;;;;;12.87;12.20;;;23.80;18.80;;;;;;5037252;28;20215;-78
2023/09/15 10:34:11;;;;;;;12.43;11.73;;;23.80;18.60;;;;;;5037477;28;20203;-78
2023/09/15 10:36:39;;;;;;;13.30;12.27;;;23.80;18.60;;;;;;5038205;28;20501;-79
2023/09/15 10:39:16;;;;;;;13.27;12.37;;;23.80;18.50;;;;;;5037657;28;20423;-78
2023/09/15 10:41:43;;;;;;;13.73;12.73;;;23.80;18.50;;;;;;5031587;28;20419;-78
2023/09/15 10:44:08;;;;;;;10.53;10.03;;;23.80;19.00;;;;;;5039576;28;20479;-78
2023/09/15 10:46:39;;;;;;;12.07;11.30;;;23.90;18.70;;;;;;5037706;28;20423;-79
2023/09/15 10:49:19;;;;;;;10.73;10.13;;;24.10;18.40;;;;;;5036122;28;20208;-79
2023/09/15 10:51:55;;;;;;;11.07;10.37;;;24.10;18.30;;;;;;5029205;28;20502;-79
2023/09/15 10:54:21;;;;;;;11.40;10.80;;;24.10;18.50;;;;;;5037008;28;20474;-79
2023/09/15 10:56:48;;;;;;;12.60;11.90;;;24.20;18.90;;;;;;5036913;28;20430;-78
2023/09/15 10:59:14;;;;;;;12.47;11.67;;;24.10;18.30;;;;;;5036838;28;20451;-77
2023/09/15 11:01:43;;;;;;;11.00;10.40;;;24.10;18.30;;;;;;5036712;28;20416;-78
2023/09/15 11:04:12;;;;;;;12.03;11.33;;;24.20;18.50;;;;;;5037047;28;20450;-79
2023/09/15 11:06:39;;;;;;;11.13;10.53;;;24.20;18.10;;;;;;5036952;28;20914;-79
2023/09/15 11:09:06;;;;;;;12.17;11.57;;;24.10;18.20;;;;;;5036984;28;20900;-79
2023/09/15 11:11:32;;;;;;;12.60;11.90;;;24.10;18.60;;;;;;5035464;28;20419;-79
2023/09/15 11:13:59;;;;;;;10.93;10.30;;;24.20;18.70;;;;;;5037118;28;20479;-78
2023/09/15 11:16:27;;;;;;;11.37;10.57;;;24.10;18.90;;;;;;5036931;28;20499;-79
2023/09/15 11:18:54;;;;;;;11.97;11.20;;;24.10;18.80;;;;;;5035879;28;20438;-79
2023/09/15 11:21:25;;;;;;;11.97;11.40;;;24.10;18.70;;;;;;5036787;28;20442;-79
2023/09/15 11:23:51;;;;;;;12.50;11.80;;;24.00;18.90;;;;;;5053460;22;20498;-76
2023/09/15 11:26:16;;;;;;;12.90;12.00;;;24.00;18.20;;;;;;5036493;28;20504;-75
2023/09/15 11:28:42;;;;;;;10.73;10.13;;;24.20;18.30;;;;;;5038020;28;20185;-75
2023/09/15 11:31:09;;;;;;;11.67;11.00;;;24.20;17.90;;;;;;5038546;28;20189;-74
2023/09/15 11:33:35;;;;;;;11.23;10.73;;;24.30;17.90;;;;;;5019422;28;20208;-76
2023/09/15 11:36:01;;;;;;;10.17;9.67;;;24.20;18.20;;;;;;5035063;28;20505;-76
2023/09/15 11:38:27;;;;;;;10.43;9.83;;;24.20;18.10;;;;;;5036169;28;20191;-76
2023/09/15 11:40:53;;;;;;;11.43;10.67;;;24.20;17.50;;;;;;5036133;28;20455;-76
2023/09/15 11:43:23;;;;;;;11.77;11.07;;;24.30;17.70;;;;;;5036692;28;20794;-76
2023/09/15 11:45:51;;;;;;;11.60;11.00;;;24.30;17.80;;;;;;5036312;28;20423;-76
2023/09/15 11:48:18;;;;;;;11.40;10.63;;;24.20;17.20;;;;;;5034798;28;20427;-78
2023/09/15 11:50:46;;;;;;;11.37;10.67;;;24.20;17.10;;;;;;5037501;28;20490;-77
2023/09/15 11:53:12;;;;;;;10.90;10.30;;;24.20;17.50;;;;;;5037561;28;20467;-78
2023/09/15 11:55:37;;;;;;;11.37;10.77;;;24.30;17.80;;;;;;5035681;28;21000;-78
2023/09/15 11:58:04;;;;;;;11.10;10.40;;;24.30;17.00;;;;;;5037289;28;20246;-77
2023/09/15 12:00:31;;;;;;;10.20;9.60;;;24.20;17.30;;;;;;5037251;28;20184;-79
2023/09/15 12:02:59;;;;;;;11.27;10.67;;;24.20;17.70;;;;;;5037671;28;20498;-78
2023/09/15 12:05:26;;;;;;;11.30;10.50;;;24.20;17.80;;;;;;5037300;28;20420;-78
2023/09/15 12:07:52;;;;;;;10.37;9.70;;;24.30;16.80;;;;;;5036964;28;20441;-77
2023/09/15 12:10:21;;;;;;;10.17;9.53;;;24.40;16.10;;;;;;5037329;28;20411;-78
2023/09/15 12:12:47;;;;;;;10.50;9.90;;;24.40;16.10;;;;;;5037259;28;20462;-79
2023/09/15 12:15:16;;;;;;;10.70;10.20;;;24.40;16.10;;;;;;5037034;28;20454;-78
2023/09/15 12:17:45;;;;;;;11.53;10.83;;;24.50;16.30;;;;;;5036550;28;20462;-77
2023/09/15 12:20:12;;;;;;;11.63;10.83;;;24.50;16.10;;;;;;5035112;28;20828;-76
2023/09/15 12:22:39;;;;;;;11.27;10.57;;;24.60;16.20;;;;;;5035468;28;20487;-75
2023/09/15 12:25:06;;;;;;;11.73;11.03;;;24.70;16.30;;;;;;5033848;28;20988;-75
2023/09/15 12:27:34;;;;;;;12.70;12.00;;;24.70;16.00;;;;;;5034085;28;20415;-75
2023/09/15 12:30:05;;;;;;;12.70;12.00;;;24.70;15.50;;;;;;5033550;28;20434;-75